Papa John — V7TY7 — position and weather

sailwx.info

Track history (hours):
 
Tides and Currents Weather Stations Pressure Air Temp Water Temp Dewpoint Dewpoint Depression Visibility Wind Speed Wind Dir Waves Ship Positions

Papa John

Last reported at 2017-Jun-12 11:30 UTC. Time now 2017-Jun-23 12:16 UTC.
Position N 01°55' E 102°20'.
Warning: this ship's position is 11 days out of date.

Length 190 m; draft 13.4 m.

Type: Ship. MMSI: 538003908.

Date/timePositionNaut miles runAvg speedWind from/ knotsBaromVisibWave heightAir tempDewpointWater temp
2017-Jun-12 11:30N 01°55' E 102°20'611.5
2017-Jun-12 10:59N 01°53' E 102°25'6611.8
2017-Jun-12 05:25N 01°17' E 103°21'4 9.7
2017-Jun-12 04:58N 01°15' E 103°24'5 9.6
2017-Jun-12 04:27N 01°13' E 103°29'410.2
2017-Jun-12 04:01N 01°12' E 103°33'510.6
2017-Jun-12 03:31N 01°11' E 103°39'510.9
2017-Jun-12 03:01N 01°09' E 103°43'510.0
2017-Jun-12 02:30N 01°11' E 103°48'510.6
2017-Jun-12 01:59N 01°13' E 103°53'6 9.7
2017-Jun-12 01:22N 01°15' E 103°58'3 0.2
2017-Jun-11 10:43N 01°18' E 104°01'1 2.5
2017-Jun-11 10:27N 01°17' E 104°00'  
Track history (hours):
 
Tides and Currents Weather Stations Pressure Air Temp Water Temp Dewpoint Dewpoint Depression Visibility Wind Speed Wind Dir Waves Ship Positions

Papa John

Last reported at 2017-Jun-12 11:30 UTC. Time now 2017-Jun-23 12:16 UTC.
Position N 01°55' E 102°20'.
Warning: this ship's position is 11 days out of date.

Length 190 m; draft 13.4 m.

Type: Ship. MMSI: 538003908.

Date/timePositionNaut miles runAvg speedWind from/ knotsBaromVisibWave heightAir tempDewpointWater temp
2017-Jun-12 11:30N 01°55' E 102°20'611.5
2017-Jun-12 10:59N 01°53' E 102°25'6611.8
2017-Jun-12 05:25N 01°17' E 103°21'4 9.7
2017-Jun-12 04:58N 01°15' E 103°24'5 9.6
2017-Jun-12 04:27N 01°13' E 103°29'410.2
2017-Jun-12 04:01N 01°12' E 103°33'510.6
2017-Jun-12 03:31N 01°11' E 103°39'510.9
2017-Jun-12 03:01N 01°09' E 103°43'510.0
2017-Jun-12 02:30N 01°11' E 103°48'510.6
2017-Jun-12 01:59N 01°13' E 103°53'6 9.7
2017-Jun-12 01:22N 01°15' E 103°58'3 0.2
2017-Jun-11 10:43N 01°18' E 104°01'1 2.5
2017-Jun-11 10:27N 01°17' E 104°00'  

Dump ship's entire track history